Richwood, Ohio
Current Conditions -  °F | °C
As of 3:41 AM on Saturday 20 Dec 2014 (Local Time) from KDLZ Reporting Station
Overcast Overcast  
Wind Chill: 28°   Ceiling: 1600
Heat Index: 28°   Visibility: 10mi
Dew Point: 23°   Wind: 0mph
Humidity: 80%   Direction: NA
Pressure: 30.28"   Gusts: NA
Location:  40.43°N, 83.3°W
Report Text: KDLZ 200841Z AUTO 00000KT 10SM OVC016 M02/M05 A3028 RMK AO2
Loading
Personal Weather Stations






























Interactive Weather Map New forecast layout! Learn more

10-Day Weather Forecast

Advertisements
Track Severe Weather on mobile